sensor_id;sensor_type;location;lat;lon;timestamp;P1;durP1;ratioP1;P2;durP2;ratioP2
71665;SDS011;59503;53.486;10.196;2024-02-28T00:02:00;18.40;;;8.80;;
71665;SDS011;59503;53.486;10.196;2024-02-28T00:04:26;17.95;;;9.13;;
71665;SDS011;59503;53.486;10.196;2024-02-28T00:06:52;17.93;;;8.33;;
71665;SDS011;59503;53.486;10.196;2024-02-28T00:09:18;18.30;;;8.50;;
71665;SDS011;59503;53.486;10.196;2024-02-28T00:11:44;16.65;;;8.23;;
71665;SDS011;59503;53.486;10.196;2024-02-28T00:14:10;17.63;;;8.15;;
71665;SDS011;59503;53.486;10.196;2024-02-28T00:16:39;18.25;;;9.07;;
71665;SDS011;59503;53.486;10.196;2024-02-28T00:19:06;19.93;;;9.27;;
71665;SDS011;59503;53.486;10.196;2024-02-28T00:21:31;19.08;;;8.85;;
71665;SDS011;59503;53.486;10.196;2024-02-28T00:23:57;18.97;;;8.20;;
71665;SDS011;59503;53.486;10.196;2024-02-28T00:26:22;18.33;;;8.80;;
71665;SDS011;59503;53.486;10.196;2024-02-28T00:28:48;17.90;;;9.07;;
71665;SDS011;59503;53.486;10.196;2024-02-28T00:31:14;17.60;;;8.27;;
71665;SDS011;59503;53.486;10.196;2024-02-28T00:33:40;17.10;;;8.70;;
71665;SDS011;59503;53.486;10.196;2024-02-28T00:36:05;20.43;;;8.43;;
71665;SDS011;59503;53.486;10.196;2024-02-28T00:38:31;19.73;;;9.23;;
71665;SDS011;59503;53.486;10.196;2024-02-28T00:40:56;19.17;;;8.50;;
71665;SDS011;59503;53.486;10.196;2024-02-28T00:43:22;19.67;;;8.67;;
71665;SDS011;59503;53.486;10.196;2024-02-28T00:45:47;17.52;;;8.55;;
71665;SDS011;59503;53.486;10.196;2024-02-28T00:48:13;16.43;;;8.00;;
71665;SDS011;59503;53.486;10.196;2024-02-28T00:50:39;18.23;;;8.48;;
71665;SDS011;59503;53.486;10.196;2024-02-28T00:53:05;19.10;;;9.90;;
71665;SDS011;59503;53.486;10.196;2024-02-28T00:55:31;21.67;;;9.33;;
71665;SDS011;59503;53.486;10.196;2024-02-28T00:57:56;19.27;;;9.38;;
71665;SDS011;59503;53.486;10.196;2024-02-28T01:00:22;17.77;;;8.90;;
71665;SDS011;59503;53.486;10.196;2024-02-28T01:02:47;20.03;;;9.50;;
71665;SDS011;59503;53.486;10.196;2024-02-28T01:05:13;20.77;;;10.13;;
71665;SDS011;59503;53.486;10.196;2024-02-28T01:07:38;20.88;;;10.13;;
71665;SDS011;59503;53.486;10.196;2024-02-28T01:10:04;22.40;;;10.50;;
71665;SDS011;59503;53.486;10.196;2024-02-28T01:12:30;23.30;;;11.00;;
71665;SDS011;59503;53.486;10.196;2024-02-28T01:14:55;23.47;;;11.07;;
71665;SDS011;59503;53.486;10.196;2024-02-28T01:17:21;23.23;;;11.00;;
71665;SDS011;59503;53.486;10.196;2024-02-28T01:19:46;22.50;;;10.73;;
71665;SDS011;59503;53.486;10.196;2024-02-28T01:22:12;22.37;;;11.40;;
71665;SDS011;59503;53.486;10.196;2024-02-28T01:24:38;21.10;;;10.75;;
71665;SDS011;59503;53.486;10.196;2024-02-28T01:27:03;20.33;;;10.80;;
71665;SDS011;59503;53.486;10.196;2024-02-28T01:29:29;22.38;;;10.65;;
71665;SDS011;59503;53.486;10.196;2024-02-28T01:31:55;24.53;;;10.83;;
71665;SDS011;59503;53.486;10.196;2024-02-28T01:34:21;21.95;;;11.05;;
71665;SDS011;59503;53.486;10.196;2024-02-28T01:36:47;26.67;;;11.93;;
71665;SDS011;59503;53.486;10.196;2024-02-28T01:39:13;22.03;;;11.33;;
71665;SDS011;59503;53.486;10.196;2024-02-28T01:41:38;22.05;;;10.93;;
71665;SDS011;59503;53.486;10.196;2024-02-28T01:44:03;22.53;;;11.30;;
71665;SDS011;59503;53.486;10.196;2024-02-28T01:46:29;25.48;;;11.82;;
71665;SDS011;59503;53.486;10.196;2024-02-28T01:48:56;25.43;;;12.90;;
71665;SDS011;59503;53.486;10.196;2024-02-28T01:51:23;24.38;;;12.13;;
71665;SDS011;59503;53.486;10.196;2024-02-28T01:53:50;26.92;;;12.80;;
71665;SDS011;59503;53.486;10.196;2024-02-28T01:56:17;27.73;;;13.02;;
71665;SDS011;59503;53.486;10.196;2024-02-28T01:58:45;28.52;;;12.82;;
71665;SDS011;59503;53.486;10.196;2024-02-28T02:01:12;26.30;;;11.90;;
71665;SDS011;59503;53.486;10.196;2024-02-28T02:03:38;26.88;;;12.10;;
71665;SDS011;59503;53.486;10.196;2024-02-28T02:06:05;28.42;;;12.25;;
71665;SDS011;59503;53.486;10.196;2024-02-28T02:08:30;29.57;;;13.13;;
71665;SDS011;59503;53.486;10.196;2024-02-28T02:10:57;24.17;;;11.73;;
71665;SDS011;59503;53.486;10.196;2024-02-28T02:13:23;27.87;;;13.03;;
71665;SDS011;59503;53.486;10.196;2024-02-28T02:15:48;25.52;;;12.00;;
71665;SDS011;59503;53.486;10.196;2024-02-28T02:18:14;29.77;;;12.40;;
71665;SDS011;59503;53.486;10.196;2024-02-28T02:20:41;29.27;;;12.30;;
71665;SDS011;59503;53.486;10.196;2024-02-28T02:23:10;31.25;;;13.18;;
71665;SDS011;59503;53.486;10.196;2024-02-28T02:25:46;30.60;;;12.77;;
71665;SDS011;59503;53.486;10.196;2024-02-28T02:28:13;27.95;;;11.68;;
71665;SDS011;59503;53.486;10.196;2024-02-28T02:30:39;29.20;;;13.00;;
71665;SDS011;59503;53.486;10.196;2024-02-28T02:33:06;28.63;;;12.75;;
71665;SDS011;59503;53.486;10.196;2024-02-28T02:35:33;27.27;;;12.37;;
71665;SDS011;59503;53.486;10.196;2024-02-28T02:37:58;27.60;;;11.77;;
71665;SDS011;59503;53.486;10.196;2024-02-28T02:40:24;28.65;;;11.63;;
71665;SDS011;59503;53.486;10.196;2024-02-28T02:42:50;30.53;;;12.80;;
71665;SDS011;59503;53.486;10.196;2024-02-28T02:45:16;32.40;;;12.88;;
71665;SDS011;59503;53.486;10.196;2024-02-28T02:47:41;29.53;;;13.03;;
71665;SDS011;59503;53.486;10.196;2024-02-28T02:50:09;32.53;;;12.73;;
71665;SDS011;59503;53.486;10.196;2024-02-28T02:52:35;32.58;;;12.50;;
71665;SDS011;59503;53.486;10.196;2024-02-28T02:55:01;30.33;;;13.33;;
71665;SDS011;59503;53.486;10.196;2024-02-28T02:57:27;31.38;;;12.93;;
71665;SDS011;59503;53.486;10.196;2024-02-28T02:59:53;31.92;;;13.50;;
71665;SDS011;59503;53.486;10.196;2024-02-28T03:02:19;33.43;;;13.03;;
71665;SDS011;59503;53.486;10.196;2024-02-28T03:04:45;33.43;;;13.70;;
71665;SDS011;59503;53.486;10.196;2024-02-28T03:07:10;33.75;;;13.15;;
71665;SDS011;59503;53.486;10.196;2024-02-28T03:09:35;31.33;;;13.43;;
71665;SDS011;59503;53.486;10.196;2024-02-28T03:12:01;29.63;;;12.73;;
71665;SDS011;59503;53.486;10.196;2024-02-28T03:14:26;30.77;;;12.63;;
71665;SDS011;59503;53.486;10.196;2024-02-28T03:16:53;32.97;;;13.00;;
71665;SDS011;59503;53.486;10.196;2024-02-28T03:19:19;33.97;;;13.32;;
71665;SDS011;59503;53.486;10.196;2024-02-28T03:21:45;31.60;;;13.17;;
71665;SDS011;59503;53.486;10.196;2024-02-28T03:24:10;34.10;;;13.43;;
71665;SDS011;59503;53.486;10.196;2024-02-28T03:26:36;33.00;;;13.00;;
71665;SDS011;59503;53.486;10.196;2024-02-28T03:29:02;30.20;;;13.18;;
71665;SDS011;59503;53.486;10.196;2024-02-28T03:31:27;38.73;;;12.63;;
71665;SDS011;59503;53.486;10.196;2024-02-28T03:33:53;31.87;;;13.00;;
71665;SDS011;59503;53.486;10.196;2024-02-28T03:36:18;30.92;;;12.02;;
71665;SDS011;59503;53.486;10.196;2024-02-28T03:38:44;31.33;;;11.93;;
71665;SDS011;59503;53.486;10.196;2024-02-28T03:41:09;30.87;;;11.87;;
71665;SDS011;59503;53.486;10.196;2024-02-28T03:43:35;33.25;;;12.95;;
71665;SDS011;59503;53.486;10.196;2024-02-28T03:46:00;29.50;;;11.43;;
71665;SDS011;59503;53.486;10.196;2024-02-28T03:48:26;25.88;;;10.77;;
71665;SDS011;59503;53.486;10.196;2024-02-28T03:50:52;34.17;;;12.43;;
71665;SDS011;59503;53.486;10.196;2024-02-28T03:53:17;31.05;;;11.65;;
71665;SDS011;59503;53.486;10.196;2024-02-28T03:55:43;31.77;;;12.27;;
71665;SDS011;59503;53.486;10.196;2024-02-28T03:58:11;31.35;;;13.07;;
71665;SDS011;59503;53.486;10.196;2024-02-28T04:00:37;31.83;;;13.23;;
71665;SDS011;59503;53.486;10.196;2024-02-28T04:03:02;35.92;;;12.50;;
71665;SDS011;59503;53.486;10.196;2024-02-28T04:05:29;30.37;;;11.50;;
71665;SDS011;59503;53.486;10.196;2024-02-28T04:07:55;29.00;;;10.65;;
71665;SDS011;59503;53.486;10.196;2024-02-28T04:10:20;28.70;;;11.83;;
71665;SDS011;59503;53.486;10.196;2024-02-28T04:12:46;29.73;;;11.23;;
71665;SDS011;59503;53.486;10.196;2024-02-28T04:15:12;29.70;;;11.70;;
71665;SDS011;59503;53.486;10.196;2024-02-28T04:17:39;30.08;;;11.43;;
71665;SDS011;59503;53.486;10.196;2024-02-28T04:20:11;29.92;;;11.57;;
71665;SDS011;59503;53.486;10.196;2024-02-28T04:22:37;32.83;;;12.45;;
71665;SDS011;59503;53.486;10.196;2024-02-28T04:25:06;30.00;;;12.13;;
71665;SDS011;59503;53.486;10.196;2024-02-28T04:27:33;28.58;;;12.32;;
71665;SDS011;59503;53.486;10.196;2024-02-28T04:29:59;27.67;;;11.15;;
71665;SDS011;59503;53.486;10.196;2024-02-28T04:32:25;28.87;;;12.03;;
71665;SDS011;59503;53.486;10.196;2024-02-28T04:34:51;30.97;;;12.10;;
71665;SDS011;59503;53.486;10.196;2024-02-28T04:37:16;34.20;;;12.40;;
71665;SDS011;59503;53.486;10.196;2024-02-28T04:39:42;29.17;;;11.80;;
71665;SDS011;59503;53.486;10.196;2024-02-28T04:42:07;31.77;;;12.38;;
71665;SDS011;59503;53.486;10.196;2024-02-28T04:44:33;31.50;;;12.43;;
71665;SDS011;59503;53.486;10.196;2024-02-28T04:46:58;31.70;;;11.83;;
71665;SDS011;59503;53.486;10.196;2024-02-28T04:49:24;29.98;;;11.38;;
71665;SDS011;59503;53.486;10.196;2024-02-28T04:51:49;30.27;;;12.20;;
71665;SDS011;59503;53.486;10.196;2024-02-28T04:54:15;28.57;;;11.37;;
71665;SDS011;59503;53.486;10.196;2024-02-28T04:56:40;30.58;;;11.98;;
71665;SDS011;59503;53.486;10.196;2024-02-28T04:59:07;31.97;;;12.80;;
71665;SDS011;59503;53.486;10.196;2024-02-28T05:01:36;31.58;;;12.43;;
71665;SDS011;59503;53.486;10.196;2024-02-28T05:04:05;29.50;;;12.02;;
71665;SDS011;59503;53.486;10.196;2024-02-28T05:06:31;28.92;;;11.90;;
71665;SDS011;59503;53.486;10.196;2024-02-28T05:08:57;29.40;;;11.70;;
71665;SDS011;59503;53.486;10.196;2024-02-28T05:11:22;29.43;;;11.60;;
71665;SDS011;59503;53.486;10.196;2024-02-28T05:13:48;29.08;;;11.20;;
71665;SDS011;59503;53.486;10.196;2024-02-28T05:16:14;29.63;;;12.10;;
71665;SDS011;59503;53.486;10.196;2024-02-28T05:18:40;24.70;;;10.07;;
71665;SDS011;59503;53.486;10.196;2024-02-28T05:21:06;28.77;;;11.60;;
71665;SDS011;59503;53.486;10.196;2024-02-28T05:23:31;30.48;;;11.65;;
71665;SDS011;59503;53.486;10.196;2024-02-28T05:25:57;25.80;;;11.13;;
71665;SDS011;59503;53.486;10.196;2024-02-28T05:28:23;23.47;;;10.33;;
71665;SDS011;59503;53.486;10.196;2024-02-28T05:30:49;23.98;;;10.45;;
71665;SDS011;59503;53.486;10.196;2024-02-28T05:33:15;23.73;;;10.38;;
71665;SDS011;59503;53.486;10.196;2024-02-28T05:35:40;23.20;;;10.13;;
71665;SDS011;59503;53.486;10.196;2024-02-28T05:38:06;25.05;;;10.13;;
71665;SDS011;59503;53.486;10.196;2024-02-28T05:40:32;23.63;;;9.43;;
71665;SDS011;59503;53.486;10.196;2024-02-28T05:42:58;21.85;;;9.68;;
71665;SDS011;59503;53.486;10.196;2024-02-28T05:45:23;22.50;;;9.27;;
71665;SDS011;59503;53.486;10.196;2024-02-28T05:47:49;22.98;;;9.80;;
71665;SDS011;59503;53.486;10.196;2024-02-28T05:50:14;21.63;;;9.33;;
71665;SDS011;59503;53.486;10.196;2024-02-28T05:52:43;25.85;;;9.25;;
71665;SDS011;59503;53.486;10.196;2024-02-28T05:55:09;22.58;;;9.38;;
71665;SDS011;59503;53.486;10.196;2024-02-28T05:57:34;23.70;;;9.33;;
71665;SDS011;59503;53.486;10.196;2024-02-28T06:00:00;20.37;;;9.87;;
71665;SDS011;59503;53.486;10.196;2024-02-28T06:02:25;22.83;;;9.40;;
71665;SDS011;59503;53.486;10.196;2024-02-28T06:04:50;23.70;;;9.88;;
71665;SDS011;59503;53.486;10.196;2024-02-28T06:07:17;25.90;;;10.00;;
71665;SDS011;59503;53.486;10.196;2024-02-28T06:09:43;23.10;;;9.90;;
71665;SDS011;59503;53.486;10.196;2024-02-28T06:12:08;24.83;;;10.13;;
71665;SDS011;59503;53.486;10.196;2024-02-28T06:14:34;24.00;;;9.60;;
71665;SDS011;59503;53.486;10.196;2024-02-28T06:16:59;22.80;;;9.27;;
71665;SDS011;59503;53.486;10.196;2024-02-28T06:19:25;21.80;;;9.87;;
71665;SDS011;59503;53.486;10.196;2024-02-28T06:21:50;23.75;;;9.10;;
71665;SDS011;59503;53.486;10.196;2024-02-28T06:24:16;24.97;;;10.10;;
71665;SDS011;59503;53.486;10.196;2024-02-28T06:26:41;21.40;;;8.97;;
71665;SDS011;59503;53.486;10.196;2024-02-28T06:29:08;24.30;;;9.52;;
71665;SDS011;59503;53.486;10.196;2024-02-28T06:31:34;23.17;;;9.97;;
71665;SDS011;59503;53.486;10.196;2024-02-28T06:33:59;22.08;;;9.15;;
71665;SDS011;59503;53.486;10.196;2024-02-28T06:36:24;21.93;;;8.97;;
71665;SDS011;59503;53.486;10.196;2024-02-28T06:38:50;22.57;;;9.20;;
71665;SDS011;59503;53.486;10.196;2024-02-28T06:41:15;24.02;;;10.07;;
71665;SDS011;59503;53.486;10.196;2024-02-28T06:43:41;25.33;;;9.67;;
71665;SDS011;59503;53.486;10.196;2024-02-28T06:46:07;24.55;;;10.23;;
71665;SDS011;59503;53.486;10.196;2024-02-28T06:48:32;27.43;;;10.50;;
71665;SDS011;59503;53.486;10.196;2024-02-28T06:50:58;22.17;;;9.80;;
71665;SDS011;59503;53.486;10.196;2024-02-28T06:53:23;22.80;;;9.38;;
71665;SDS011;59503;53.486;10.196;2024-02-28T06:55:48;21.13;;;9.07;;
71665;SDS011;59503;53.486;10.196;2024-02-28T06:58:14;24.63;;;10.20;;
71665;SDS011;59503;53.486;10.196;2024-02-28T07:00:40;21.63;;;9.43;;
71665;SDS011;59503;53.486;10.196;2024-02-28T07:03:05;19.67;;;8.37;;
71665;SDS011;59503;53.486;10.196;2024-02-28T07:05:32;26.90;;;9.63;;
71665;SDS011;59503;53.486;10.196;2024-02-28T07:07:59;23.63;;;9.85;;
71665;SDS011;59503;53.486;10.196;2024-02-28T07:10:25;23.77;;;9.75;;
71665;SDS011;59503;53.486;10.196;2024-02-28T07:12:50;21.40;;;9.17;;
71665;SDS011;59503;53.486;10.196;2024-02-28T07:15:16;20.73;;;9.30;;
71665;SDS011;59503;53.486;10.196;2024-02-28T07:17:44;21.48;;;9.18;;
71665;SDS011;59503;53.486;10.196;2024-02-28T07:20:10;22.35;;;9.70;;
71665;SDS011;59503;53.486;10.196;2024-02-28T07:22:37;21.63;;;9.03;;
71665;SDS011;59503;53.486;10.196;2024-02-28T07:25:03;22.95;;;8.77;;
71665;SDS011;59503;53.486;10.196;2024-02-28T07:27:29;20.65;;;8.55;;
71665;SDS011;59503;53.486;10.196;2024-02-28T07:29:55;20.27;;;8.77;;
71665;SDS011;59503;53.486;10.196;2024-02-28T07:32:20;18.90;;;8.50;;
71665;SDS011;59503;53.486;10.196;2024-02-28T07:34:46;17.83;;;8.10;;
71665;SDS011;59503;53.486;10.196;2024-02-28T07:37:12;20.00;;;8.02;;
71665;SDS011;59503;53.486;10.196;2024-02-28T07:39:37;19.57;;;9.00;;
71665;SDS011;59503;53.486;10.196;2024-02-28T07:42:03;20.92;;;8.55;;
71665;SDS011;59503;53.486;10.196;2024-02-28T07:44:28;19.20;;;8.70;;
71665;SDS011;59503;53.486;10.196;2024-02-28T07:46:56;19.00;;;7.60;;
71665;SDS011;59503;53.486;10.196;2024-02-28T07:49:24;19.40;;;8.48;;
71665;SDS011;59503;53.486;10.196;2024-02-28T07:51:50;19.20;;;8.30;;
71665;SDS011;59503;53.486;10.196;2024-02-28T07:54:16;18.75;;;8.43;;
71665;SDS011;59503;53.486;10.196;2024-02-28T07:56:41;21.03;;;9.10;;
71665;SDS011;59503;53.486;10.196;2024-02-28T07:59:07;19.60;;;9.03;;
71665;SDS011;59503;53.486;10.196;2024-02-28T08:01:33;20.20;;;9.10;;
71665;SDS011;59503;53.486;10.196;2024-02-28T08:03:58;16.33;;;7.73;;
71665;SDS011;59503;53.486;10.196;2024-02-28T08:06:24;20.15;;;8.45;;
71665;SDS011;59503;53.486;10.196;2024-02-28T08:08:50;17.67;;;8.13;;
71665;SDS011;59503;53.486;10.196;2024-02-28T08:11:16;18.25;;;7.97;;
71665;SDS011;59503;53.486;10.196;2024-02-28T08:13:42;17.40;;;8.13;;
71665;SDS011;59503;53.486;10.196;2024-02-28T08:16:09;18.60;;;8.15;;
71665;SDS011;59503;53.486;10.196;2024-02-28T08:18:34;18.25;;;9.00;;
71665;SDS011;59503;53.486;10.196;2024-02-28T08:21:00;20.70;;;8.90;;
71665;SDS011;59503;53.486;10.196;2024-02-28T08:23:27;19.67;;;8.63;;
71665;SDS011;59503;53.486;10.196;2024-02-28T08:25:53;22.27;;;8.85;;
71665;SDS011;59503;53.486;10.196;2024-02-28T08:28:19;16.60;;;8.02;;
71665;SDS011;59503;53.486;10.196;2024-02-28T08:30:45;19.00;;;8.43;;
71665;SDS011;59503;53.486;10.196;2024-02-28T08:33:10;21.48;;;9.90;;
71665;SDS011;59503;53.486;10.196;2024-02-28T08:35:36;22.07;;;8.63;;
71665;SDS011;59503;53.486;10.196;2024-02-28T08:38:02;18.43;;;8.57;;
71665;SDS011;59503;53.486;10.196;2024-02-28T08:40:28;20.15;;;8.45;;
71665;SDS011;59503;53.486;10.196;2024-02-28T08:42:55;19.80;;;9.40;;
71665;SDS011;59503;53.486;10.196;2024-02-28T08:45:22;20.97;;;9.20;;
71665;SDS011;59503;53.486;10.196;2024-02-28T08:47:48;21.65;;;9.27;;
71665;SDS011;59503;53.486;10.196;2024-02-28T08:50:13;22.60;;;9.80;;
71665;SDS011;59503;53.486;10.196;2024-02-28T08:52:38;25.52;;;10.68;;
71665;SDS011;59503;53.486;10.196;2024-02-28T08:55:04;23.27;;;10.57;;
71665;SDS011;59503;53.486;10.196;2024-02-28T08:57:30;23.95;;;9.75;;
71665;SDS011;59503;53.486;10.196;2024-02-28T08:59:55;28.60;;;11.40;;
71665;SDS011;59503;53.486;10.196;2024-02-28T09:02:21;23.20;;;9.93;;
71665;SDS011;59503;53.486;10.196;2024-02-28T09:04:47;23.38;;;10.38;;
71665;SDS011;59503;53.486;10.196;2024-02-28T09:07:19;25.88;;;11.07;;
71665;SDS011;59503;53.486;10.196;2024-02-28T09:09:45;25.50;;;11.25;;
71665;SDS011;59503;53.486;10.196;2024-02-28T09:12:11;23.40;;;11.00;;
71665;SDS011;59503;53.486;10.196;2024-02-28T09:14:36;31.52;;;12.23;;
71665;SDS011;59503;53.486;10.196;2024-02-28T09:17:02;25.90;;;11.23;;
71665;SDS011;59503;53.486;10.196;2024-02-28T09:19:29;23.67;;;11.40;;
71665;SDS011;59503;53.486;10.196;2024-02-28T09:21:55;24.50;;;11.82;;
71665;SDS011;59503;53.486;10.196;2024-02-28T09:24:21;24.70;;;11.57;;
71665;SDS011;59503;53.486;10.196;2024-02-28T09:26:46;27.40;;;12.20;;
71665;SDS011;59503;53.486;10.196;2024-02-28T09:29:12;25.20;;;11.27;;
71665;SDS011;59503;53.486;10.196;2024-02-28T09:31:37;28.30;;;12.30;;
71665;SDS011;59503;53.486;10.196;2024-02-28T09:34:02;28.03;;;12.70;;
71665;SDS011;59503;53.486;10.196;2024-02-28T09:36:32;29.23;;;13.13;;
71665;SDS011;59503;53.486;10.196;2024-02-28T09:38:59;26.92;;;12.38;;
71665;SDS011;59503;53.486;10.196;2024-02-28T09:41:24;26.43;;;12.80;;
71665;SDS011;59503;53.486;10.196;2024-02-28T09:43:51;28.90;;;12.10;;
71665;SDS011;59503;53.486;10.196;2024-02-28T09:46:18;28.38;;;13.20;;
71665;SDS011;59503;53.486;10.196;2024-02-28T09:48:43;29.43;;;13.30;;
71665;SDS011;59503;53.486;10.196;2024-02-28T09:51:13;27.45;;;12.43;;
71665;SDS011;59503;53.486;10.196;2024-02-28T09:53:39;29.38;;;13.65;;
71665;SDS011;59503;53.486;10.196;2024-02-28T09:56:06;28.73;;;11.97;;
71665;SDS011;59503;53.486;10.196;2024-02-28T09:58:31;27.95;;;12.57;;
71665;SDS011;59503;53.486;10.196;2024-02-28T10:00:59;32.05;;;14.15;;
71665;SDS011;59503;53.486;10.196;2024-02-28T10:03:28;31.73;;;12.82;;
71665;SDS011;59503;53.486;10.196;2024-02-28T10:05:55;29.97;;;12.77;;
71665;SDS011;59503;53.486;10.196;2024-02-28T10:08:21;27.08;;;12.02;;
71665;SDS011;59503;53.486;10.196;2024-02-28T10:10:46;29.87;;;13.37;;
71665;SDS011;59503;53.486;10.196;2024-02-28T10:13:19;28.02;;;12.32;;
71665;SDS011;59503;53.486;10.196;2024-02-28T10:15:45;31.75;;;13.45;;
71665;SDS011;59503;53.486;10.196;2024-02-28T10:18:11;31.13;;;11.87;;
71665;SDS011;59503;53.486;10.196;2024-02-28T10:20:36;25.45;;;11.60;;
71665;SDS011;59503;53.486;10.196;2024-02-28T10:23:04;31.90;;;13.50;;
71665;SDS011;59503;53.486;10.196;2024-02-28T10:25:30;29.00;;;13.02;;
71665;SDS011;59503;53.486;10.196;2024-02-28T10:27:59;27.30;;;11.57;;
71665;SDS011;59503;53.486;10.196;2024-02-28T10:30:26;27.00;;;12.55;;
71665;SDS011;59503;53.486;10.196;2024-02-28T10:32:51;27.95;;;13.13;;
71665;SDS011;59503;53.486;10.196;2024-02-28T10:35:17;31.23;;;14.67;;
71665;SDS011;59503;53.486;10.196;2024-02-28T10:37:50;27.38;;;12.55;;
71665;SDS011;59503;53.486;10.196;2024-02-28T10:40:17;26.67;;;12.23;;
71665;SDS011;59503;53.486;10.196;2024-02-28T10:42:42;27.48;;;12.43;;
71665;SDS011;59503;53.486;10.196;2024-02-28T10:45:11;27.05;;;13.15;;
71665;SDS011;59503;53.486;10.196;2024-02-28T10:47:40;24.97;;;11.30;;
71665;SDS011;59503;53.486;10.196;2024-02-28T10:50:06;26.77;;;12.32;;
71665;SDS011;59503;53.486;10.196;2024-02-28T10:52:35;24.60;;;12.10;;
71665;SDS011;59503;53.486;10.196;2024-02-28T10:55:08;24.27;;;11.60;;
71665;SDS011;59503;53.486;10.196;2024-02-28T10:57:34;30.08;;;12.43;;
71665;SDS011;59503;53.486;10.196;2024-02-28T11:00:01;22.60;;;10.27;;
71665;SDS011;59503;53.486;10.196;2024-02-28T11:02:29;23.98;;;11.30;;
71665;SDS011;59503;53.486;10.196;2024-02-28T11:04:57;22.35;;;11.45;;
71665;SDS011;59503;53.486;10.196;2024-02-28T11:07:24;24.00;;;11.13;;
71665;SDS011;59503;53.486;10.196;2024-02-28T11:09:56;25.25;;;11.13;;
71665;SDS011;59503;53.486;10.196;2024-02-28T11:12:27;24.93;;;10.47;;
71665;SDS011;59503;53.486;10.196;2024-02-28T11:14:57;25.60;;;12.35;;
71665;SDS011;59503;53.486;10.196;2024-02-28T11:17:28;21.38;;;10.38;;
71665;SDS011;59503;53.486;10.196;2024-02-28T11:19:54;21.30;;;10.00;;
71665;SDS011;59503;53.486;10.196;2024-02-28T11:22:20;20.93;;;11.13;;
71665;SDS011;59503;53.486;10.196;2024-02-28T11:24:46;25.65;;;10.75;;
71665;SDS011;59503;53.486;10.196;2024-02-28T11:27:13;22.77;;;11.40;;
71665;SDS011;59503;53.486;10.196;2024-02-28T11:29:39;27.37;;;11.90;;
71665;SDS011;59503;53.486;10.196;2024-02-28T11:32:05;25.10;;;11.65;;
71665;SDS011;59503;53.486;10.196;2024-02-28T11:34:31;27.98;;;12.20;;
71665;SDS011;59503;53.486;10.196;2024-02-28T11:36:57;23.43;;;11.33;;
71665;SDS011;59503;53.486;10.196;2024-02-28T11:39:23;30.55;;;12.50;;
71665;SDS011;59503;53.486;10.196;2024-02-28T11:41:50;25.65;;;11.40;;
71665;SDS011;59503;53.486;10.196;2024-02-28T11:44:16;23.33;;;10.97;;
71665;SDS011;59503;53.486;10.196;2024-02-28T11:46:46;25.85;;;12.32;;
71665;SDS011;59503;53.486;10.196;2024-02-28T11:49:12;25.15;;;12.15;;
71665;SDS011;59503;53.486;10.196;2024-02-28T11:51:42;22.40;;;11.20;;
71665;SDS011;59503;53.486;10.196;2024-02-28T11:54:09;22.67;;;11.07;;
71665;SDS011;59503;53.486;10.196;2024-02-28T11:56:36;23.73;;;11.43;;
71665;SDS011;59503;53.486;10.196;2024-02-28T11:59:03;24.92;;;12.38;;
71665;SDS011;59503;53.486;10.196;2024-02-28T12:01:34;26.27;;;12.38;;
71665;SDS011;59503;53.486;10.196;2024-02-28T12:04:01;22.33;;;11.77;;
71665;SDS011;59503;53.486;10.196;2024-02-28T12:06:29;24.90;;;11.65;;
71665;SDS011;59503;53.486;10.196;2024-02-28T12:08:54;23.33;;;11.17;;
71665;SDS011;59503;53.486;10.196;2024-02-28T12:11:20;25.10;;;11.67;;
71665;SDS011;59503;53.486;10.196;2024-02-28T12:13:45;28.52;;;12.57;;
71665;SDS011;59503;53.486;10.196;2024-02-28T12:16:11;23.33;;;11.83;;
71665;SDS011;59503;53.486;10.196;2024-02-28T12:18:36;24.40;;;11.50;;
71665;SDS011;59503;53.486;10.196;2024-02-28T12:21:02;24.30;;;11.48;;
71665;SDS011;59503;53.486;10.196;2024-02-28T12:23:29;28.43;;;11.50;;
71665;SDS011;59503;53.486;10.196;2024-02-28T12:25:55;25.33;;;11.80;;
71665;SDS011;59503;53.486;10.196;2024-02-28T12:28:21;23.75;;;11.45;;
71665;SDS011;59503;53.486;10.196;2024-02-28T12:30:46;26.07;;;11.87;;
71665;SDS011;59503;53.486;10.196;2024-02-28T12:33:12;21.98;;;11.70;;
71665;SDS011;59503;53.486;10.196;2024-02-28T12:35:37;24.57;;;11.73;;
71665;SDS011;59503;53.486;10.196;2024-02-28T12:38:03;22.07;;;10.93;;
71665;SDS011;59503;53.486;10.196;2024-02-28T12:40:29;22.87;;;11.40;;
71665;SDS011;59503;53.486;10.196;2024-02-28T12:42:54;28.27;;;10.90;;
71665;SDS011;59503;53.486;10.196;2024-02-28T12:45:20;25.13;;;10.65;;
71665;SDS011;59503;53.486;10.196;2024-02-28T12:47:45;23.87;;;11.37;;
71665;SDS011;59503;53.486;10.196;2024-02-28T12:50:10;22.00;;;10.83;;
71665;SDS011;59503;53.486;10.196;2024-02-28T12:52:37;22.70;;;11.63;;
71665;SDS011;59503;53.486;10.196;2024-02-28T12:55:02;24.98;;;11.02;;
71665;SDS011;59503;53.486;10.196;2024-02-28T12:57:28;30.38;;;11.80;;
71665;SDS011;59503;53.486;10.196;2024-02-28T12:59:54;26.00;;;10.47;;
71665;SDS011;59503;53.486;10.196;2024-02-28T13:02:20;24.73;;;11.10;;
71665;SDS011;59503;53.486;10.196;2024-02-28T13:04:47;23.90;;;11.75;;
71665;SDS011;59503;53.486;10.196;2024-02-28T13:07:14;23.17;;;10.77;;
71665;SDS011;59503;53.486;10.196;2024-02-28T13:09:40;22.73;;;10.70;;
71665;SDS011;59503;53.486;10.196;2024-02-28T13:12:06;21.63;;;9.53;;
71665;SDS011;59503;53.486;10.196;2024-02-28T13:14:33;24.05;;;11.05;;
71665;SDS011;59503;53.486;10.196;2024-02-28T13:16:59;27.35;;;11.57;;
71665;SDS011;59503;53.486;10.196;2024-02-28T13:19:25;24.20;;;11.90;;
71665;SDS011;59503;53.486;10.196;2024-02-28T13:21:50;27.53;;;12.83;;
71665;SDS011;59503;53.486;10.196;2024-02-28T13:24:15;29.60;;;12.60;;
71665;SDS011;59503;53.486;10.196;2024-02-28T13:26:42;26.25;;;11.25;;
71665;SDS011;59503;53.486;10.196;2024-02-28T13:29:07;25.73;;;10.77;;
71665;SDS011;59503;53.486;10.196;2024-02-28T13:31:33;22.50;;;10.65;;
71665;SDS011;59503;53.486;10.196;2024-02-28T13:34:00;26.38;;;11.18;;
71665;SDS011;59503;53.486;10.196;2024-02-28T13:36:27;26.48;;;11.73;;
71665;SDS011;59503;53.486;10.196;2024-02-28T13:38:52;24.33;;;10.90;;
71665;SDS011;59503;53.486;10.196;2024-02-28T13:41:18;24.47;;;11.83;;
71665;SDS011;59503;53.486;10.196;2024-02-28T13:43:43;22.13;;;11.40;;
71665;SDS011;59503;53.486;10.196;2024-02-28T13:46:09;21.23;;;9.87;;
71665;SDS011;59503;53.486;10.196;2024-02-28T13:48:35;23.07;;;10.80;;
71665;SDS011;59503;53.486;10.196;2024-02-28T13:51:00;22.00;;;10.20;;
71665;SDS011;59503;53.486;10.196;2024-02-28T13:53:27;22.07;;;10.57;;
71665;SDS011;59503;53.486;10.196;2024-02-28T13:55:52;21.40;;;10.02;;
71665;SDS011;59503;53.486;10.196;2024-02-28T13:58:18;21.50;;;9.93;;
71665;SDS011;59503;53.486;10.196;2024-02-28T14:00:44;21.50;;;9.80;;
71665;SDS011;59503;53.486;10.196;2024-02-28T14:03:13;23.10;;;11.18;;
71665;SDS011;59503;53.486;10.196;2024-02-28T14:05:40;23.33;;;11.10;;
71665;SDS011;59503;53.486;10.196;2024-02-28T14:08:06;22.05;;;10.70;;